Terminal Aerodrome Forecast
Issued by NWS

Home | Current Version | Previous Version | Text Only | Print | Product List | Glossary On
Versions: 1 2 3 4 5 6 7 8 9 10 11 12 13
000
FTUS46 KOTX 301720
TAFCOE
TAF
KCOE 301720Z 3018/3118 20011KT P6SM SKC
     FM302000 23012G20KT P6SM SKC
     FM310300 20009KT P6SM SKC
     FM311200 19006KT P6SM SCT250
      AMD LTD TO CLD VIS AND WIND=

USA.gov is the U.S. government's official web portal to all federal, state and local government web resources and services.